sensor_id;sensor_type;location;lat;lon;timestamp;pressure;altitude;pressure_sealevel;temperature;humidity
76205;BME280;64986;55.672;37.628;2023-03-23T00:01:48;99267.63;;;5.43;58.03
76205;BME280;64986;55.672;37.628;2023-03-23T00:04:17;99269.09;;;5.46;57.88
76205;BME280;64986;55.672;37.628;2023-03-23T00:06:43;99270.81;;;5.39;58.48
76205;BME280;64986;55.672;37.628;2023-03-23T00:09:12;99274.41;;;5.38;58.34
76205;BME280;64986;55.672;37.628;2023-03-23T00:11:37;99267.59;;;5.28;58.63
76205;BME280;64986;55.672;37.628;2023-03-23T00:14:04;99262.41;;;5.43;58.29
76205;BME280;64986;55.672;37.628;2023-03-23T00:16:32;99261.28;;;5.46;58.13
76205;BME280;64986;55.672;37.628;2023-03-23T00:19:00;99270.22;;;5.28;58.91
76205;BME280;64986;55.672;37.628;2023-03-23T00:21:28;99263.78;;;5.39;58.48
76205;BME280;64986;55.672;37.628;2023-03-23T00:26:35;99259.38;;;5.40;58.48
76205;BME280;64986;55.672;37.628;2023-03-23T00:29:04;99261.00;;;5.41;58.09
76205;BME280;64986;55.672;37.628;2023-03-23T00:31:30;99256.94;;;5.38;58.74
76205;BME280;64986;55.672;37.628;2023-03-23T00:34:03;99256.88;;;5.46;58.25
76205;BME280;64986;55.672;37.628;2023-03-23T00:36:33;99261.03;;;5.55;58.10
76205;BME280;64986;55.672;37.628;2023-03-23T00:39:01;99250.38;;;5.42;58.08
76205;BME280;64986;55.672;37.628;2023-03-23T00:41:28;99245.94;;;5.43;58.51
76205;BME280;64986;55.672;37.628;2023-03-23T00:43:57;99250.13;;;5.52;58.08
76205;BME280;64986;55.672;37.628;2023-03-23T00:46:26;99248.56;;;5.43;58.57
76205;BME280;64986;55.672;37.628;2023-03-23T00:48:53;99248.56;;;5.43;58.12
76205;BME280;64986;55.672;37.628;2023-03-23T00:51:20;99247.94;;;5.41;58.73
76205;BME280;64986;55.672;37.628;2023-03-23T00:53:46;99244.41;;;5.34;58.97
76205;BME280;64986;55.672;37.628;2023-03-23T00:56:12;99233.91;;;5.42;58.42
76205;BME280;64986;55.672;37.628;2023-03-23T00:58:38;99239.13;;;5.42;58.35
76205;BME280;64986;55.672;37.628;2023-03-23T01:01:06;99234.44;;;5.37;58.91
76205;BME280;64986;55.672;37.628;2023-03-23T01:03:32;99234.25;;;5.39;58.77
76205;BME280;64986;55.672;37.628;2023-03-23T01:06:04;99238.50;;;5.40;58.91
76205;BME280;64986;55.672;37.628;2023-03-23T01:08:30;99238.78;;;5.45;58.76
76205;BME280;64986;55.672;37.628;2023-03-23T01:11:03;99245.31;;;5.41;58.87
76205;BME280;64986;55.672;37.628;2023-03-23T01:13:29;99237.50;;;5.41;58.74
76205;BME280;64986;55.672;37.628;2023-03-23T01:15:54;99229.22;;;5.37;58.62
76205;BME280;64986;55.672;37.628;2023-03-23T01:18:19;99233.91;;;5.42;58.84
76205;BME280;64986;55.672;37.628;2023-03-23T01:20:45;99235.41;;;5.36;58.93
76205;BME280;64986;55.672;37.628;2023-03-23T01:23:10;99230.19;;;5.36;59.16
76205;BME280;64986;55.672;37.628;2023-03-23T01:25:36;99228.41;;;5.37;59.34
76205;BME280;64986;55.672;37.628;2023-03-23T01:28:02;99221.41;;;5.37;59.14
76205;BME280;64986;55.672;37.628;2023-03-23T01:30:28;99222.34;;;5.36;59.13
76205;BME280;64986;55.672;37.628;2023-03-23T01:32:55;99225.97;;;5.35;59.51
76205;BME280;64986;55.672;37.628;2023-03-23T01:35:21;99217.88;;;5.30;59.84
76205;BME280;64986;55.672;37.628;2023-03-23T01:37:46;99215.88;;;5.32;59.73
76205;BME280;64986;55.672;37.628;2023-03-23T01:40:13;99207.88;;;5.34;59.58
76205;BME280;64986;55.672;37.628;2023-03-23T01:42:39;99207.88;;;5.34;59.91
76205;BME280;64986;55.672;37.628;2023-03-23T01:45:24;99202.31;;;5.37;59.69
76205;BME280;64986;55.672;37.628;2023-03-23T01:47:57;99201.41;;;5.29;59.84
76205;BME280;64986;55.672;37.628;2023-03-23T01:50:26;99198.59;;;5.31;59.66
76205;BME280;64986;55.672;37.628;2023-03-23T01:52:53;99209.22;;;5.29;59.81
76205;BME280;64986;55.672;37.628;2023-03-23T01:55:21;99196.00;;;5.31;59.68
76205;BME280;64986;55.672;37.628;2023-03-23T01:57:47;99198.94;;;5.28;60.30
76205;BME280;64986;55.672;37.628;2023-03-23T02:00:14;99193.91;;;5.26;60.23
76205;BME280;64986;55.672;37.628;2023-03-23T02:02:45;99191.31;;;5.26;60.52
76205;BME280;64986;55.672;37.628;2023-03-23T02:05:21;99194.53;;;5.28;60.25
76205;BME280;64986;55.672;37.628;2023-03-23T02:07:49;99185.44;;;5.10;60.77
76205;BME280;64986;55.672;37.628;2023-03-23T02:10:15;99191.19;;;5.20;60.51
76205;BME280;64986;55.672;37.628;2023-03-23T02:12:41;99191.75;;;5.15;60.52
76205;BME280;64986;55.672;37.628;2023-03-23T02:15:07;99181.94;;;5.17;60.44
76205;BME280;64986;55.672;37.628;2023-03-23T02:17:41;99195.38;;;5.29;59.81
76205;BME280;64986;55.672;37.628;2023-03-23T02:20:29;99189.41;;;5.35;59.66
76205;BME280;64986;55.672;37.628;2023-03-23T02:33:36;99192.84;;;5.36;59.46
76205;BME280;64986;55.672;37.628;2023-03-23T02:41:28;99190.66;;;5.10;60.88
76205;BME280;64986;55.672;37.628;2023-03-23T02:43:56;99186.50;;;5.00;61.07
76205;BME280;64986;55.672;37.628;2023-03-23T02:46:23;99177.19;;;4.98;60.87
76205;BME280;64986;55.672;37.628;2023-03-23T02:48:53;99181.88;;;4.88;61.67
76205;BME280;64986;55.672;37.628;2023-03-23T02:51:22;99180.31;;;4.79;61.82
76205;BME280;64986;55.672;37.628;2023-03-23T02:53:51;99181.31;;;4.78;61.68
76205;BME280;64986;55.672;37.628;2023-03-23T02:56:18;99184.13;;;4.68;61.64
76205;BME280;64986;55.672;37.628;2023-03-23T02:58:44;99193.47;;;4.62;62.19
76205;BME280;64986;55.672;37.628;2023-03-23T03:01:45;99192.81;;;4.60;63.04
76205;BME280;64986;55.672;37.628;2023-03-23T03:04:28;99189.41;;;4.60;63.38
76205;BME280;64986;55.672;37.628;2023-03-23T03:15:45;99180.38;;;4.48;63.10
76205;BME280;64986;55.672;37.628;2023-03-23T03:18:18;99181.50;;;4.45;63.52
76205;BME280;64986;55.672;37.628;2023-03-23T03:20:50;99180.56;;;4.38;63.72
76205;BME280;64986;55.672;37.628;2023-03-23T03:23:16;99182.03;;;4.40;63.70
76205;BME280;64986;55.672;37.628;2023-03-23T03:25:45;99176.53;;;4.35;64.11
76205;BME280;64986;55.672;37.628;2023-03-23T03:28:19;99182.22;;;4.39;64.16
76205;BME280;64986;55.672;37.628;2023-03-23T03:30:52;99185.47;;;4.41;64.47
76205;BME280;64986;55.672;37.628;2023-03-23T03:33:19;99174.81;;;4.51;63.53
76205;BME280;64986;55.672;37.628;2023-03-23T03:35:46;99186.03;;;4.51;63.73
76205;BME280;64986;55.672;37.628;2023-03-23T03:38:12;99162.63;;;4.43;63.53
76205;BME280;64986;55.672;37.628;2023-03-23T03:40:38;99166.66;;;4.54;63.63
76205;BME280;64986;55.672;37.628;2023-03-23T03:43:04;99170.63;;;4.41;64.35
76205;BME280;64986;55.672;37.628;2023-03-23T03:45:31;99163.69;;;4.34;64.54
76205;BME280;64986;55.672;37.628;2023-03-23T03:47:56;99168.13;;;4.25;65.69
76205;BME280;64986;55.672;37.628;2023-03-23T03:50:22;99166.84;;;4.21;65.45
76205;BME280;64986;55.672;37.628;2023-03-23T03:52:48;99173.16;;;4.27;65.53
76205;BME280;64986;55.672;37.628;2023-03-23T03:55:14;99177.38;;;4.28;65.21
76205;BME280;64986;55.672;37.628;2023-03-23T03:57:40;99169.00;;;4.17;65.87
76205;BME280;64986;55.672;37.628;2023-03-23T04:00:08;99168.38;;;4.07;66.20
76205;BME280;64986;55.672;37.628;2023-03-23T04:02:45;99162.03;;;4.10;66.43
76205;BME280;64986;55.672;37.628;2023-03-23T04:05:16;99157.69;;;4.02;66.55
76205;BME280;64986;55.672;37.628;2023-03-23T04:07:42;99159.78;;;3.99;66.90
76205;BME280;64986;55.672;37.628;2023-03-23T04:10:09;99160.94;;;3.96;66.42
76205;BME280;64986;55.672;37.628;2023-03-23T04:12:36;99161.94;;;3.95;66.51
76205;BME280;64986;55.672;37.628;2023-03-23T04:15:03;99160.59;;;3.99;66.59
76205;BME280;64986;55.672;37.628;2023-03-23T04:17:29;99154.75;;;3.97;66.98
76205;BME280;64986;55.672;37.628;2023-03-23T04:19:55;99145.28;;;4.04;66.77
76205;BME280;64986;55.672;37.628;2023-03-23T04:22:26;99142.00;;;4.10;67.27
76205;BME280;64986;55.672;37.628;2023-03-23T04:24:59;99152.13;;;4.05;68.32
76205;BME280;64986;55.672;37.628;2023-03-23T04:27:27;99147.53;;;4.07;67.85
76205;BME280;64986;55.672;37.628;2023-03-23T04:29:55;99147.53;;;4.07;68.30
76205;BME280;64986;55.672;37.628;2023-03-23T04:32:21;99132.34;;;4.19;67.45
76205;BME280;64986;55.672;37.628;2023-03-23T04:34:47;99142.28;;;4.15;67.99
76205;BME280;64986;55.672;37.628;2023-03-23T04:37:13;99142.28;;;4.15;68.42
76205;BME280;64986;55.672;37.628;2023-03-23T04:39:39;99150.72;;;4.26;67.97
76205;BME280;64986;55.672;37.628;2023-03-23T04:42:05;99140.53;;;4.39;67.45
76205;BME280;64986;55.672;37.628;2023-03-23T04:44:30;99145.69;;;4.47;66.97
76205;BME280;64986;55.672;37.628;2023-03-23T04:47:00;99145.38;;;4.42;67.42
76205;BME280;64986;55.672;37.628;2023-03-23T04:49:26;99144.88;;;4.47;66.81
76205;BME280;64986;55.672;37.628;2023-03-23T04:51:52;99136.88;;;4.48;67.22
76205;BME280;64986;55.672;37.628;2023-03-23T04:54:17;99145.94;;;4.52;67.05
76205;BME280;64986;55.672;37.628;2023-03-23T04:56:43;99149.16;;;4.62;66.15
76205;BME280;64986;55.672;37.628;2023-03-23T04:59:09;99148.97;;;4.64;66.19
76205;BME280;64986;55.672;37.628;2023-03-23T05:01:35;99142.78;;;4.65;66.27
76205;BME280;64986;55.672;37.628;2023-03-23T05:04:03;99140.16;;;4.65;66.80
76205;BME280;64986;55.672;37.628;2023-03-23T05:06:28;99147.00;;;4.66;66.93
76205;BME280;64986;55.672;37.628;2023-03-23T05:08:54;99157.53;;;4.72;66.99
76205;BME280;64986;55.672;37.628;2023-03-23T05:11:20;99147.22;;;4.79;66.74
76205;BME280;64986;55.672;37.628;2023-03-23T05:13:45;99153.34;;;4.86;66.85
76205;BME280;64986;55.672;37.628;2023-03-23T05:16:11;99146.06;;;4.82;66.64
76205;BME280;64986;55.672;37.628;2023-03-23T05:18:36;99158.25;;;5.04;65.98
76205;BME280;64986;55.672;37.628;2023-03-23T05:21:03;99155.22;;;4.78;67.14
76205;BME280;64986;55.672;37.628;2023-03-23T05:23:28;99160.19;;;4.87;66.90
76205;BME280;64986;55.672;37.628;2023-03-23T05:25:57;99171.03;;;4.99;66.59
76205;BME280;64986;55.672;37.628;2023-03-23T05:28:27;99153.94;;;5.11;66.21
76205;BME280;64986;55.672;37.628;2023-03-23T05:30:54;99160.34;;;5.09;66.06
76205;BME280;64986;55.672;37.628;2023-03-23T05:33:21;99150.25;;;5.20;65.72
76205;BME280;64986;55.672;37.628;2023-03-23T05:35:47;99155.13;;;5.23;65.61
76205;BME280;64986;55.672;37.628;2023-03-23T05:38:13;99150.00;;;5.15;65.98
76205;BME280;64986;55.672;37.628;2023-03-23T05:40:40;99148.41;;;5.29;65.43
76205;BME280;64986;55.672;37.628;2023-03-23T05:43:07;99145.44;;;5.47;65.10
76205;BME280;64986;55.672;37.628;2023-03-23T05:45:33;99155.50;;;5.35;65.36
76205;BME280;64986;55.672;37.628;2023-03-23T05:47:59;99156.50;;;5.49;65.02
76205;BME280;64986;55.672;37.628;2023-03-23T05:50:25;99156.41;;;5.57;64.53
76205;BME280;64986;55.672;37.628;2023-03-23T05:52:50;99149.19;;;5.59;64.97
76205;BME280;64986;55.672;37.628;2023-03-23T05:55:16;99165.22;;;5.56;64.79
76205;BME280;64986;55.672;37.628;2023-03-23T05:57:42;99163.31;;;5.50;65.26
76205;BME280;64986;55.672;37.628;2023-03-23T06:00:09;99174.06;;;5.55;65.35
76205;BME280;64986;55.672;37.628;2023-03-23T06:02:40;99156.84;;;5.75;64.69
76205;BME280;64986;55.672;37.628;2023-03-23T06:05:09;99152.78;;;5.88;64.23
76205;BME280;64986;55.672;37.628;2023-03-23T06:07:35;99150.34;;;5.86;64.49
76205;BME280;64986;55.672;37.628;2023-03-23T06:10:04;99154.47;;;6.10;63.82
76205;BME280;64986;55.672;37.628;2023-03-23T06:12:29;99151.13;;;6.16;63.47
76205;BME280;64986;55.672;37.628;2023-03-23T06:14:55;99140.16;;;6.06;64.05
76205;BME280;64986;55.672;37.628;2023-03-23T06:17:20;99136.31;;;6.23;63.72
76205;BME280;64986;55.672;37.628;2023-03-23T06:19:46;99148.91;;;6.34;63.08
76205;BME280;64986;55.672;37.628;2023-03-23T06:22:13;99148.16;;;6.40;63.05
76205;BME280;64986;55.672;37.628;2023-03-23T06:24:39;99131.59;;;6.55;62.29
76205;BME280;64986;55.672;37.628;2023-03-23T06:27:04;99153.06;;;6.72;61.76
76205;BME280;64986;55.672;37.628;2023-03-23T06:29:30;99142.63;;;6.72;62.23
76205;BME280;64986;55.672;37.628;2023-03-23T06:31:58;99153.94;;;6.57;62.26
76205;BME280;64986;55.672;37.628;2023-03-23T06:34:26;99154.41;;;6.82;61.94
76205;BME280;64986;55.672;37.628;2023-03-23T06:36:51;99148.91;;;6.77;61.64
76205;BME280;64986;55.672;37.628;2023-03-23T06:39:17;99143.47;;;6.79;61.34
76205;BME280;64986;55.672;37.628;2023-03-23T06:41:43;99144.66;;;6.98;61.43
76205;BME280;64986;55.672;37.628;2023-03-23T06:44:08;99146.72;;;7.09;61.37
76205;BME280;64986;55.672;37.628;2023-03-23T06:46:39;99148.16;;;7.39;59.83
76205;BME280;64986;55.672;37.628;2023-03-23T06:49:05;99140.03;;;7.28;60.13
76205;BME280;64986;55.672;37.628;2023-03-23T06:51:31;99140.78;;;7.49;60.10
76205;BME280;64986;55.672;37.628;2023-03-23T06:53:56;99130.78;;;7.66;59.64
76205;BME280;64986;55.672;37.628;2023-03-23T06:56:23;99136.66;;;7.75;58.97
76205;BME280;64986;55.672;37.628;2023-03-23T06:58:49;99135.47;;;7.84;58.43
76205;BME280;64986;55.672;37.628;2023-03-23T07:01:14;99116.34;;;7.90;59.09
76205;BME280;64986;55.672;37.628;2023-03-23T07:03:41;99124.28;;;8.03;58.46
76205;BME280;64986;55.672;37.628;2023-03-23T07:06:09;99131.06;;;7.91;58.34
76205;BME280;64986;55.672;37.628;2023-03-23T07:08:35;99114.53;;;7.91;58.52
76205;BME280;64986;55.672;37.628;2023-03-23T07:11:02;99123.47;;;8.03;57.48
76205;BME280;64986;55.672;37.628;2023-03-23T07:13:28;99124.28;;;8.03;58.03
76205;BME280;64986;55.672;37.628;2023-03-23T07:15:53;99123.50;;;8.16;57.47
76205;BME280;64986;55.672;37.628;2023-03-23T07:18:20;99120.28;;;8.27;57.62
76205;BME280;64986;55.672;37.628;2023-03-23T07:20:50;99130.22;;;8.39;57.12
76205;BME280;64986;55.672;37.628;2023-03-23T07:23:16;99113.03;;;8.29;56.48
76205;BME280;64986;55.672;37.628;2023-03-23T07:25:43;99112.69;;;8.52;55.93
76205;BME280;64986;55.672;37.628;2023-03-23T07:28:08;99114.88;;;8.36;56.46
76205;BME280;64986;55.672;37.628;2023-03-23T07:30:34;99120.72;;;8.38;56.39
76205;BME280;64986;55.672;37.628;2023-03-23T07:33:04;99105.44;;;8.48;55.94
76205;BME280;64986;55.672;37.628;2023-03-23T07:35:30;99113.47;;;8.46;55.86
76205;BME280;64986;55.672;37.628;2023-03-23T07:37:55;99109.06;;;8.53;55.56
76205;BME280;64986;55.672;37.628;2023-03-23T07:40:22;99122.97;;;8.60;55.51
76205;BME280;64986;55.672;37.628;2023-03-23T07:42:55;99100.19;;;8.48;56.14
76205;BME280;64986;55.672;37.628;2023-03-23T07:45:21;99108.84;;;8.68;54.79
76205;BME280;64986;55.672;37.628;2023-03-23T07:47:47;99112.69;;;8.66;55.29
76205;BME280;64986;55.672;37.628;2023-03-23T07:50:13;99098.78;;;8.58;54.83
76205;BME280;64986;55.672;37.628;2023-03-23T07:52:39;99101.41;;;8.72;54.85
76205;BME280;64986;55.672;37.628;2023-03-23T07:55:08;99100.19;;;8.74;54.97
76205;BME280;64986;55.672;37.628;2023-03-23T07:57:36;99096.53;;;8.69;54.76
76205;BME280;64986;55.672;37.628;2023-03-23T08:00:04;99096.97;;;8.72;53.99
76205;BME280;64986;55.672;37.628;2023-03-23T08:02:45;99071.53;;;8.79;53.84
76205;BME280;64986;55.672;37.628;2023-03-23T08:05:11;99095.31;;;9.04;53.56
76205;BME280;64986;55.672;37.628;2023-03-23T08:07:39;99096.56;;;8.95;53.43
76205;BME280;64986;55.672;37.628;2023-03-23T08:10:06;99081.22;;;8.79;53.51
76205;BME280;64986;55.672;37.628;2023-03-23T08:12:36;99075.94;;;9.05;53.28
76205;BME280;64986;55.672;37.628;2023-03-23T08:15:04;99076.34;;;9.02;52.99
76205;BME280;64986;55.672;37.628;2023-03-23T08:17:30;99080.97;;;9.13;52.66
76205;BME280;64986;55.672;37.628;2023-03-23T08:19:56;99074.28;;;9.17;52.53
76205;BME280;64986;55.672;37.628;2023-03-23T08:22:23;99080.94;;;9.27;51.98
76205;BME280;64986;55.672;37.628;2023-03-23T08:24:48;99081.31;;;9.37;51.79
76205;BME280;64986;55.672;37.628;2023-03-23T08:27:14;99103.06;;;9.57;50.73
76205;BME280;64986;55.672;37.628;2023-03-23T08:29:39;99080.66;;;9.48;49.99
76205;BME280;64986;55.672;37.628;2023-03-23T08:32:06;99093.06;;;9.21;49.80
76205;BME280;64986;55.672;37.628;2023-03-23T08:34:32;99064.78;;;9.30;49.68
76205;BME280;64986;55.672;37.628;2023-03-23T08:36:57;99070.59;;;9.45;49.64
76205;BME280;64986;55.672;37.628;2023-03-23T08:39:23;99070.53;;;9.52;49.31
76205;BME280;64986;55.672;37.628;2023-03-23T08:41:50;99063.81;;;9.69;48.83
76205;BME280;64986;55.672;37.628;2023-03-23T08:44:16;99057.59;;;9.57;48.53
76205;BME280;64986;55.672;37.628;2023-03-23T08:46:41;99050.34;;;9.52;48.36
76205;BME280;64986;55.672;37.628;2023-03-23T08:49:07;99060.91;;;9.84;48.26
76205;BME280;64986;55.672;37.628;2023-03-23T08:51:33;99046.06;;;9.96;47.54
76205;BME280;64986;55.672;37.628;2023-03-23T08:53:59;99039.38;;;10.00;47.53
76205;BME280;64986;55.672;37.628;2023-03-23T08:56:25;99039.47;;;9.87;47.58
76205;BME280;64986;55.672;37.628;2023-03-23T08:58:51;99031.13;;;9.90;47.87
76205;BME280;64986;55.672;37.628;2023-03-23T09:01:16;99029.19;;;10.10;47.93
76205;BME280;64986;55.672;37.628;2023-03-23T09:03:42;99027.13;;;10.19;47.00
76205;BME280;64986;55.672;37.628;2023-03-23T09:06:09;99025.75;;;10.10;47.58
76205;BME280;64986;55.672;37.628;2023-03-23T09:08:38;99008.28;;;10.22;47.11
76205;BME280;64986;55.672;37.628;2023-03-23T09:11:08;99001.13;;;10.36;46.80
76205;BME280;64986;55.672;37.628;2023-03-23T09:13:35;99003.44;;;10.50;46.75
76205;BME280;64986;55.672;37.628;2023-03-23T09:16:01;98997.09;;;10.58;46.49
76205;BME280;64986;55.672;37.628;2023-03-23T09:18:27;98991.31;;;10.68;46.20
76205;BME280;64986;55.672;37.628;2023-03-23T09:20:54;98994.19;;;10.84;45.95
76205;BME280;64986;55.672;37.628;2023-03-23T09:23:20;98985.91;;;11.36;44.83
76205;BME280;64986;55.672;37.628;2023-03-23T09:25:46;98985.94;;;12.08;43.39
76205;BME280;64986;55.672;37.628;2023-03-23T09:28:12;98997.13;;;12.92;41.74
76205;BME280;64986;55.672;37.628;2023-03-23T09:30:39;98995.13;;;13.34;40.93
76205;BME280;64986;55.672;37.628;2023-03-23T09:33:06;98978.22;;;13.64;40.17
76205;BME280;64986;55.672;37.628;2023-03-23T09:35:34;98972.44;;;14.62;39.90
76205;BME280;64986;55.672;37.628;2023-03-23T09:38:01;98974.13;;;14.68;38.74
76205;BME280;64986;55.672;37.628;2023-03-23T09:40:46;99010.16;;;15.08;36.84
76205;BME280;64986;55.672;37.628;2023-03-23T09:48:41;98959.47;;;15.75;35.23
76205;BME280;64986;55.672;37.628;2023-03-23T09:51:41;98949.41;;;15.77;36.59
76205;BME280;64986;55.672;37.628;2023-03-23T09:56:37;98947.22;;;16.38;34.97
76205;BME280;64986;55.672;37.628;2023-03-23T09:59:09;98935.28;;;16.36;34.54
76205;BME280;64986;55.672;37.628;2023-03-23T10:01:44;98936.22;;;16.62;33.39
76205;BME280;64986;55.672;37.628;2023-03-23T10:04:30;98940.78;;;17.24;33.84
76205;BME280;64986;55.672;37.628;2023-03-23T10:07:08;98923.03;;;16.77;32.88
76205;BME280;64986;55.672;37.628;2023-03-23T10:09:35;98921.28;;;16.51;33.62
76205;BME280;64986;55.672;37.628;2023-03-23T10:12:10;98923.66;;;16.95;33.02
76205;BME280;64986;55.672;37.628;2023-03-23T10:14:57;98913.94;;;16.63;32.20
76205;BME280;64986;55.672;37.628;2023-03-23T10:17:40;98907.47;;;17.01;31.95
76205;BME280;64986;55.672;37.628;2023-03-23T10:21:10;98911.81;;;17.43;32.09
76205;BME280;64986;55.672;37.628;2023-03-23T10:32:05;98920.59;;;18.71;28.58
76205;BME280;64986;55.672;37.628;2023-03-23T10:34:52;98908.75;;;19.02;27.81
76205;BME280;64986;55.672;37.628;2023-03-23T10:37:50;98899.50;;;19.34;28.04
76205;BME280;64986;55.672;37.628;2023-03-23T10:40:22;98891.00;;;20.05;27.15
76205;BME280;64986;55.672;37.628;2023-03-23T10:42:52;98897.06;;;19.82;27.60
76205;BME280;64986;55.672;37.628;2023-03-23T10:45:23;98902.06;;;19.49;27.03
76205;BME280;64986;55.672;37.628;2023-03-23T10:47:59;98901.94;;;18.66;28.72
76205;BME280;64986;55.672;37.628;2023-03-23T10:50:31;98889.25;;;19.51;27.54
76205;BME280;64986;55.672;37.628;2023-03-23T10:53:23;98898.81;;;19.97;26.69
76205;BME280;64986;55.672;37.628;2023-03-23T10:55:50;98895.53;;;20.34;26.73
76205;BME280;64986;55.672;37.628;2023-03-23T10:58:32;98911.97;;;20.51;26.81
76205;BME280;64986;55.672;37.628;2023-03-23T11:01:03;98890.00;;;20.97;25.80
76205;BME280;64986;55.672;37.628;2023-03-23T11:06:01;98904.97;;;20.98;25.39
76205;BME280;64986;55.672;37.628;2023-03-23T11:08:35;98891.34;;;21.18;24.42
76205;BME280;64986;55.672;37.628;2023-03-23T11:11:17;98902.38;;;21.36;25.47
76205;BME280;64986;55.672;37.628;2023-03-23T11:13:46;98897.88;;;21.50;24.86
76205;BME280;64986;55.672;37.628;2023-03-23T11:16:54;98901.00;;;21.57;24.35
76205;BME280;64986;55.672;37.628;2023-03-23T11:19:29;98885.22;;;22.21;23.56
76205;BME280;64986;55.672;37.628;2023-03-23T11:22:06;98896.75;;;23.04;22.09
76205;BME280;64986;55.672;37.628;2023-03-23T11:24:40;98893.59;;;22.47;22.59
76205;BME280;64986;55.672;37.628;2023-03-23T11:27:07;98896.84;;;21.27;24.51
76205;BME280;64986;55.672;37.628;2023-03-23T11:29:35;98896.50;;;20.91;24.78
76205;BME280;64986;55.672;37.628;2023-03-23T11:32:09;98879.28;;;19.67;25.58
76205;BME280;64986;55.672;37.628;2023-03-23T11:34:47;98890.28;;;19.16;26.66
76205;BME280;64986;55.672;37.628;2023-03-23T11:37:28;98893.84;;;19.40;26.77
76205;BME280;64986;55.672;37.628;2023-03-23T11:40:18;98906.97;;;19.81;25.79
76205;BME280;64986;55.672;37.628;2023-03-23T11:45:31;98889.19;;;18.47;27.64
76205;BME280;64986;55.672;37.628;2023-03-23T11:50:52;98908.75;;;16.88;29.98
76205;BME280;64986;55.672;37.628;2023-03-23T11:58:46;98901.88;;;15.22;33.15
76205;BME280;64986;55.672;37.628;2023-03-23T12:04:35;98901.03;;;14.73;34.49
76205;BME280;64986;55.672;37.628;2023-03-23T12:16:17;98878.22;;;17.01;31.57
76205;BME280;64986;55.672;37.628;2023-03-23T12:19:09;98868.50;;;17.93;30.14
76205;BME280;64986;55.672;37.628;2023-03-23T12:29:33;98885.53;;;17.72;30.18
76205;BME280;64986;55.672;37.628;2023-03-23T12:43:01;98881.16;;;16.05;32.77
76205;BME280;64986;55.672;37.628;2023-03-23T12:48:23;98867.72;;;14.77;35.23
76205;BME280;64986;55.672;37.628;2023-03-23T12:51:21;98862.53;;;14.65;35.38
76205;BME280;64986;55.672;37.628;2023-03-23T12:54:40;98876.56;;;14.65;35.55
76205;BME280;64986;55.672;37.628;2023-03-23T12:57:16;98872.88;;;14.28;36.02
76205;BME280;64986;55.672;37.628;2023-03-23T13:00:27;98879.91;;;14.00;36.68
76205;BME280;64986;55.672;37.628;2023-03-23T13:08:06;98858.88;;;13.94;37.21
76205;BME280;64986;55.672;37.628;2023-03-23T13:10:38;98866.34;;;13.80;37.19
76205;BME280;64986;55.672;37.628;2023-03-23T13:13:12;98852.97;;;13.70;37.65
76205;BME280;64986;55.672;37.628;2023-03-23T13:15:45;98876.28;;;13.73;37.80
76205;BME280;64986;55.672;37.628;2023-03-23T13:26:02;98847.81;;;14.74;35.90
76205;BME280;64986;55.672;37.628;2023-03-23T13:31:16;98834.50;;;14.91;35.24
76205;BME280;64986;55.672;37.628;2023-03-23T13:34:05;98853.59;;;14.49;36.15
76205;BME280;64986;55.672;37.628;2023-03-23T13:36:37;98835.41;;;13.80;37.69
76205;BME280;64986;55.672;37.628;2023-03-23T13:39:06;98833.81;;;13.63;37.99
76205;BME280;64986;55.672;37.628;2023-03-23T13:41:58;98843.44;;;13.69;37.79
76205;BME280;64986;55.672;37.628;2023-03-23T13:44:26;98840.38;;;13.77;37.53
76205;BME280;64986;55.672;37.628;2023-03-23T13:47:03;98841.50;;;13.19;38.97
76205;BME280;64986;55.672;37.628;2023-03-23T13:49:32;98839.75;;;12.96;39.62
76205;BME280;64986;55.672;37.628;2023-03-23T13:52:22;98840.91;;;13.00;39.48
76205;BME280;64986;55.672;37.628;2023-03-23T13:54:48;98840.25;;;12.93;39.95
76205;BME280;64986;55.672;37.628;2023-03-23T13:57:25;98838.81;;;13.02;39.98
76205;BME280;64986;55.672;37.628;2023-03-23T13:59:57;98826.84;;;12.99;40.21
76205;BME280;64986;55.672;37.628;2023-03-23T14:02:40;98821.28;;;12.84;40.56
76205;BME280;64986;55.672;37.628;2023-03-23T14:10:21;98824.72;;;12.56;41.32
76205;BME280;64986;55.672;37.628;2023-03-23T14:12:50;98823.94;;;12.56;41.72
76205;BME280;64986;55.672;37.628;2023-03-23T14:15:17;98820.69;;;12.65;41.22
76205;BME280;64986;55.672;37.628;2023-03-23T14:17:44;98820.03;;;12.46;41.33
76205;BME280;64986;55.672;37.628;2023-03-23T14:20:25;98810.44;;;12.40;42.33
76205;BME280;64986;55.672;37.628;2023-03-23T14:22:55;98809.72;;;12.45;42.01
76205;BME280;64986;55.672;37.628;2023-03-23T14:25:22;98804.53;;;12.50;42.55
76205;BME280;64986;55.672;37.628;2023-03-23T14:27:52;98797.91;;;12.76;41.56
76205;BME280;64986;55.672;37.628;2023-03-23T14:30:24;98798.28;;;12.39;42.46
76205;BME280;64986;55.672;37.628;2023-03-23T14:32:55;98797.53;;;12.56;42.55
76205;BME280;64986;55.672;37.628;2023-03-23T14:35:31;98809.06;;;12.26;42.69
76205;BME280;64986;55.672;37.628;2023-03-23T14:37:57;98801.59;;;12.35;42.99
76205;BME280;64986;55.672;37.628;2023-03-23T14:40:26;98796.28;;;12.46;42.21
76205;BME280;64986;55.672;37.628;2023-03-23T14:42:52;98797.94;;;12.24;43.03
76205;BME280;64986;55.672;37.628;2023-03-23T14:45:20;98792.91;;;12.11;43.14
76205;BME280;64986;55.672;37.628;2023-03-23T14:48:13;98789.91;;;12.19;43.07
76205;BME280;64986;55.672;37.628;2023-03-23T14:50:42;98789.00;;;11.78;44.29
76205;BME280;64986;55.672;37.628;2023-03-23T14:53:25;98789.00;;;11.78;44.35
76205;BME280;64986;55.672;37.628;2023-03-23T14:55:54;98780.28;;;11.54;44.98
76205;BME280;64986;55.672;37.628;2023-03-23T14:58:23;98779.94;;;11.74;44.62
76205;BME280;64986;55.672;37.628;2023-03-23T15:00:56;98793.25;;;11.79;43.93
76205;BME280;64986;55.672;37.628;2023-03-23T15:03:24;98792.88;;;11.52;45.17
76205;BME280;64986;55.672;37.628;2023-03-23T15:05:54;98776.59;;;11.44;45.26